KLBE/LBE METAR and TAF weather

Enter ICAO airport designator
Station Type Date Time Source
KLBE METAR 2019/08/21 03:15 UTC NOAA

KLBE 210315Z AUTO 00000KT 9SM CLR 23/22 A3000 RMK AO2 LTG DSNT SW AND NW


Station Type Date Time Source
KLBE Decoded METAR 2019/08/21 03:15 UTC NOAA

Station name not available
Aug 20, 2019 - 11:15 PM EDT / 2019.08.21 0315 UTC
Wind: Calm:0
Visibility: 9 mile(s):0
Sky conditions: clear
Weather: Lightning observed
Temperature: 73 F (23 C)
Dew Point: 71 F (22 C)
Relative Humidity: 94%
Pressure (altimeter): 30 in. Hg (1015 hPa)
ob: KLBE 210315Z AUTO 00000KT 9SM CLR 23/22 A3000 RMK AO2 LTG DSNT SW AND NW
cycle: 3

Station Type Date Time Source
KLBE TAF 2019/08/21 02:54 UTC NOAA

TAF
AMD KLBE 210151Z 2102/2124 21008KT P6SM SCT050 BKN200
FM210500 VRB04KT P6SM VCSH BKN050
FM211300 22006KT P6SM SCT010 BKN030
FM211700 24008KT P6SM VCTS BKN035CB

Example: see airport list